createdAt,value
2023-03-20T00:01:37.238Z,100614.25
2023-03-20T00:06:40.051Z,100619.06
2023-03-20T00:11:49.031Z,100624.94
2023-03-20T00:16:52.716Z,100640.81
2023-03-20T00:21:57.584Z,100632.66
2023-03-20T00:27:02.688Z,100631.59
2023-03-20T00:32:09.625Z,100649.22
2023-03-20T00:37:12.653Z,100638.31
2023-03-20T00:42:22.151Z,100630.19
2023-03-20T00:47:27.040Z,100624.50
2023-03-20T00:52:30.447Z,100625.22
2023-03-20T00:57:40.328Z,100623.59
2023-03-20T01:02:43.172Z,100638.47
2023-03-20T01:07:46.623Z,100641.69
2023-03-20T01:12:50.833Z,100631.28
2023-03-20T01:17:53.955Z,100640.53
2023-03-20T01:22:57.054Z,100636.88
2023-03-20T01:28:01.607Z,100616.47
2023-03-20T01:33:14.428Z,100612.97
2023-03-20T01:38:21.629Z,100625.16
2023-03-20T01:43:28.841Z,100630.75
2023-03-20T01:48:57.084Z,100643.47
2023-03-20T01:54:06.012Z,100649.50
2023-03-20T01:59:17.631Z,100680.41
2023-03-20T02:04:27.110Z,100685.75
2023-03-20T02:09:36.384Z,100686.78
2023-03-20T02:14:48.027Z,100680.41
2023-03-20T02:20:10.042Z,100664.72
2023-03-20T02:25:48.094Z,100673.38
2023-03-20T02:31:09.162Z,100669.16
2023-03-20T02:36:51.286Z,100672.91
2023-03-20T02:42:03.446Z,100655.81
2023-03-20T02:47:12.651Z,100650.56
2023-03-20T02:52:21.168Z,100651.38
2023-03-20T02:57:39.867Z,100646.38
2023-03-20T03:02:51.811Z,100648.25
2023-03-20T03:07:59.766Z,100655.94
2023-03-20T03:13:07.760Z,100667.81
2023-03-20T03:18:15.341Z,100675.38
2023-03-20T03:23:28.550Z,100668.06
2023-03-20T03:28:37.541Z,100670.53
2023-03-20T03:33:42.134Z,100667.19
2023-03-20T03:38:52.228Z,100661.16
2023-03-20T03:44:06.766Z,100665.41
2023-03-20T03:49:14.766Z,100668.75
2023-03-20T03:54:23.560Z,100664.88
2023-03-20T03:59:52.075Z,100651.72
2023-03-20T04:04:56.175Z,100648.31
2023-03-20T04:09:58.972Z,100648.16
2023-03-20T04:15:03.670Z,100641.63
2023-03-20T04:20:10.698Z,100622.66
2023-03-20T04:25:18.757Z,100614.88
2023-03-20T04:30:24.057Z,100629.94
2023-03-20T04:35:51.706Z,100617.34
2023-03-20T04:40:54.475Z,100622.75
2023-03-20T04:45:58.788Z,100622.06
2023-03-20T04:51:01.855Z,100621.00
2023-03-20T04:56:16.899Z,100618.09
2023-03-20T05:01:21.314Z,100629.28
2023-03-20T05:06:24.166Z,100640.59
2023-03-20T05:11:27.383Z,100640.78
2023-03-20T05:16:47.305Z,100637.72
2023-03-20T05:21:58.494Z,100632.25
2023-03-20T05:27:08.043Z,100634.38
2023-03-20T05:32:27.039Z,100637.84
2023-03-20T05:37:55.818Z,100649.94
2023-03-20T05:43:06.847Z,100653.56
2023-03-20T05:48:26.512Z,100648.81
2023-03-20T05:53:54.763Z,100654.66
2023-03-20T05:59:15.497Z,100655.69
2023-03-20T06:04:48.581Z,100654.72
2023-03-20T06:09:57.786Z,100657.03
2023-03-20T06:15:01.946Z,100666.84
2023-03-20T06:20:11.314Z,100665.03
2023-03-20T06:25:14.635Z,100658.09
2023-03-20T06:30:20.248Z,100670.38
2023-03-20T06:35:24.835Z,100668.38
2023-03-20T06:40:28.338Z,100658.28
2023-03-20T06:45:32.090Z,100667.81
2023-03-20T06:50:38.776Z,100671.66
2023-03-20T06:55:42.303Z,100674.72
2023-03-20T07:00:46.700Z,100683.13
2023-03-20T07:05:51.318Z,100675.88
2023-03-20T07:10:55.587Z,100689.00
2023-03-20T07:16:04.422Z,100695.56
2023-03-20T07:21:20.471Z,100701.59
2023-03-20T07:26:23.264Z,100703.66
2023-03-20T07:31:28.891Z,100716.38
2023-03-20T07:36:49.651Z,100707.03
2023-03-20T07:41:55.990Z,100710.53
2023-03-20T07:47:12.758Z,100706.63
2023-03-20T07:52:17.194Z,100710.28
2023-03-20T07:57:20.363Z,100725.72
2023-03-20T08:02:23.303Z,100723.72
2023-03-20T08:07:29.550Z,100718.75
2023-03-20T08:12:32.398Z,100724.78
2023-03-20T08:17:35.189Z,100729.91
2023-03-20T08:22:39.508Z,100720.38
2023-03-20T08:27:42.293Z,100732.34
2023-03-20T08:32:45.431Z,100734.66
2023-03-20T08:37:49.543Z,100727.56
2023-03-20T08:42:52.340Z,100737.28
2023-03-20T08:47:55.756Z,100747.81
2023-03-20T08:52:59.912Z,100751.19
2023-03-20T08:58:02.864Z,100744.97
2023-03-20T09:03:05.855Z,100725.44
2023-03-20T09:08:10.058Z,100729.75
2023-03-20T09:13:26.333Z,100733.44
2023-03-20T09:18:30.192Z,100725.88
2023-03-20T09:23:34.388Z,100739.88
2023-03-20T09:28:37.180Z,100742.84
2023-03-20T09:33:40.029Z,100755.09
2023-03-20T09:38:44.158Z,100756.78
2023-03-20T09:43:58.312Z,100759.19
2023-03-20T09:49:13.499Z,100757.22
2023-03-20T09:54:25.612Z,100764.34
2023-03-20T09:59:29.241Z,100765.06
2023-03-20T10:04:32.111Z,100762.72
2023-03-20T10:09:36.293Z,100751.03
2023-03-20T10:14:48.476Z,100765.78
2023-03-20T10:19:54.591Z,100750.16
2023-03-20T10:25:08.691Z,100747.06
2023-03-20T10:30:32.487Z,100747.72
2023-03-20T10:35:40.778Z,100743.56
2023-03-20T10:40:45.954Z,100741.94
2023-03-20T10:45:51.801Z,100738.84
2023-03-20T10:50:57.112Z,100725.44
2023-03-20T10:56:06.357Z,100717.97
2023-03-20T11:01:09.307Z,100720.13
2023-03-20T11:06:19.541Z,100721.31
2023-03-20T11:11:29.295Z,100709.00
2023-03-20T11:16:36.662Z,100689.06
2023-03-20T11:21:47.371Z,100691.19
2023-03-20T11:26:52.847Z,100690.53
2023-03-20T11:32:04.151Z,100692.25
2023-03-20T11:37:22.076Z,100687.88
2023-03-20T11:42:28.601Z,100689.06
2023-03-20T11:47:34.824Z,100683.69
2023-03-20T11:52:40.894Z,100675.69
2023-03-20T11:57:47.360Z,100678.28
2023-03-20T12:02:51.024Z,100661.50
2023-03-20T12:07:58.182Z,100656.75
2023-03-20T12:13:07.756Z,100663.22
2023-03-20T12:18:15.638Z,100655.28
2023-03-20T12:23:25.137Z,100655.84
2023-03-20T12:28:37.228Z,100672.22
2023-03-20T12:33:46.914Z,100664.56
2023-03-20T12:38:49.661Z,100671.28
2023-03-20T12:44:21.763Z,100665.00
2023-03-20T12:49:35.449Z,100658.78
2023-03-20T12:54:52.186Z,100659.47
2023-03-20T13:00:13.663Z,100649.84
2023-03-20T13:05:32.088Z,100639.59
2023-03-20T13:10:39.052Z,100647.25
2023-03-20T13:15:59.203Z,100644.44
2023-03-20T13:21:07.401Z,100667.34
2023-03-20T13:26:22.765Z,100649.81
2023-03-20T13:31:37.875Z,100664.41
2023-03-20T13:36:55.447Z,100656.03
2023-03-20T13:42:00.518Z,100646.81
2023-03-20T13:47:11.435Z,100645.78
2023-03-20T13:52:18.093Z,100632.19
2023-03-20T13:57:29.925Z,100626.91
2023-03-20T14:02:51.767Z,100633.13
2023-03-20T14:07:58.162Z,100619.50
2023-03-20T14:13:02.480Z,100620.59
2023-03-20T14:18:09.390Z,100622.78
2023-03-20T14:23:20.553Z,100631.69
2023-03-20T14:28:28.366Z,100634.81
2023-03-20T14:33:32.705Z,100620.38
2023-03-20T14:38:41.065Z,100613.25
2023-03-20T14:43:58.926Z,100622.50
2023-03-20T14:49:19.447Z,100627.00
2023-03-20T14:54:27.863Z,100623.88
2023-03-20T14:59:33.323Z,100615.16
2023-03-20T15:04:40.531Z,100609.53
2023-03-20T15:09:46.288Z,100615.44
2023-03-20T15:14:56.347Z,100632.25
2023-03-20T15:20:08.594Z,100610.69
2023-03-20T15:25:18.514Z,100620.00
2023-03-20T15:30:23.113Z,100607.22
2023-03-20T15:35:28.151Z,100606.22
2023-03-20T15:40:49.360Z,100609.41
2023-03-20T15:46:14.195Z,100605.56
2023-03-20T15:51:23.837Z,100602.72
2023-03-20T15:56:28.150Z,100602.31
2023-03-20T16:01:33.216Z,100596.94
2023-03-20T16:06:47.216Z,100601.84
2023-03-20T16:11:58.061Z,100599.75
2023-03-20T16:17:03.186Z,100582.59
2023-03-20T16:22:18.344Z,100595.47
2023-03-20T16:27:27.577Z,100590.53
2023-03-20T16:32:38.391Z,100586.88
2023-03-20T16:37:49.564Z,100595.91
2023-03-20T16:42:54.902Z,100591.25
2023-03-20T16:48:22.554Z,100586.00
2023-03-20T16:53:30.979Z,100590.75
2023-03-20T16:58:39.875Z,100598.81
2023-03-20T17:03:49.163Z,100587.50
2023-03-20T17:08:55.469Z,100587.94
2023-03-20T17:13:58.256Z,100599.97
2023-03-20T17:19:02.665Z,100602.13
2023-03-20T17:24:07.361Z,100595.69
2023-03-20T17:29:11.819Z,100608.53
2023-03-20T17:34:15.562Z,100599.97
2023-03-20T17:39:21.497Z,100607.41
2023-03-20T17:44:24.790Z,100609.88
2023-03-20T17:49:28.334Z,100611.22
2023-03-20T17:54:32.593Z,100620.59
2023-03-20T17:59:36.355Z,100613.63
2023-03-20T18:04:39.158Z,100626.53
2023-03-20T18:09:44.542Z,100631.59
2023-03-20T18:14:47.788Z,100645.56
2023-03-20T18:19:50.546Z,100627.63
2023-03-20T18:24:54.696Z,100635.75
2023-03-20T18:29:57.466Z,100641.09
2023-03-20T18:35:00.265Z,100637.97
2023-03-20T18:40:07.643Z,100640.13
2023-03-20T18:45:11.743Z,100636.34
2023-03-20T18:50:24.443Z,100636.09
2023-03-20T18:55:29.135Z,100625.44
2023-03-20T19:00:37.896Z,100630.75
2023-03-20T19:05:41.091Z,100625.81
2023-03-20T19:10:45.959Z,100627.25
2023-03-20T19:15:48.884Z,100632.88
2023-03-20T19:20:53.033Z,100627.31
2023-03-20T19:25:57.258Z,100638.44
2023-03-20T19:31:00.889Z,100626.06
2023-03-20T19:36:04.950Z,100618.69
2023-03-20T19:41:09.515Z,100623.72
2023-03-20T19:46:28.491Z,100626.56
2023-03-20T19:51:38.972Z,100624.69
2023-03-20T19:56:43.181Z,100611.72
2023-03-20T20:01:47.019Z,100613.97
2023-03-20T20:06:50.048Z,100604.91
2023-03-20T20:11:54.303Z,100611.28
2023-03-20T20:16:57.180Z,100601.44
2023-03-20T20:22:20.308Z,100605.75
2023-03-20T20:27:23.951Z,100590.66
2023-03-20T20:32:28.548Z,100594.41
2023-03-20T20:43:01.400Z,100589.66
2023-03-20T20:48:07.292Z,100592.41
2023-03-20T20:53:10.223Z,100587.22
2023-03-20T20:58:14.341Z,100582.44
2023-03-20T21:03:17.402Z,100581.72
2023-03-20T21:08:20.223Z,100581.28
2023-03-20T21:13:24.520Z,100575.84
2023-03-20T21:18:27.473Z,100578.31
2023-03-20T21:23:30.419Z,100573.63
2023-03-20T21:28:34.569Z,100585.03
2023-03-20T21:33:38.744Z,100576.78
2023-03-20T21:44:05.682Z,100575.00
2023-03-20T21:55:14.988Z,100574.88
2023-03-20T22:00:44.042Z,100578.66
2023-03-20T22:05:58.644Z,100561.34
2023-03-20T22:17:08.781Z,100571.88
2023-03-20T22:27:43.628Z,100568.09
2023-03-20T22:38:41.321Z,100569.00
2023-03-20T22:48:33.278Z,100567.00
2023-03-20T22:53:36.499Z,100544.41
2023-03-20T22:58:39.328Z,100550.66
2023-03-20T23:03:43.478Z,100543.22
2023-03-20T23:08:52.286Z,100539.72
2023-03-20T23:13:57.218Z,100539.63
2023-03-20T23:19:01.376Z,100543.88
2023-03-20T23:24:04.462Z,100539.94
2023-03-20T23:29:07.688Z,100544.13
2023-03-20T23:34:11.911Z,100546.47
2023-03-20T23:39:15.286Z,100532.34
2023-03-20T23:44:18.113Z,100539.94
2023-03-20T23:49:22.511Z,100534.91
2023-03-20T23:54:25.301Z,100533.84
2023-03-20T23:59:29.808Z,100527.72
